createdAt,value
2023-04-14T00:03:30.867Z,21.62
2023-04-14T00:08:37.952Z,21.31
2023-04-14T00:13:45.133Z,21.05
2023-04-14T00:18:52.312Z,20.87
2023-04-14T00:23:59.524Z,20.64
2023-04-14T00:29:06.780Z,20.40
2023-04-14T00:34:13.987Z,20.33
2023-04-14T00:39:21.280Z,20.23
2023-04-14T00:44:28.483Z,20.14
2023-04-14T00:49:44.927Z,20.04
2023-04-14T00:54:58.733Z,19.96
2023-04-14T01:00:10.844Z,19.90
2023-04-14T01:06:02.488Z,19.84
2023-04-14T01:15:41.146Z,19.78
2023-04-14T01:16:31.347Z,19.72
2023-04-14T01:21:37.292Z,19.64
2023-04-14T01:26:51.142Z,19.65
2023-04-14T01:32:06.392Z,19.60
2023-04-14T01:37:27.248Z,19.52
2023-04-14T01:42:37.462Z,19.43
2023-04-14T01:47:43.600Z,19.46
2023-04-14T01:53:32.701Z,19.37
2023-04-14T01:58:48.505Z,19.37
2023-04-14T02:04:02.484Z,19.34
2023-04-14T02:09:09.639Z,19.30
2023-04-14T02:14:26.425Z,19.28
2023-04-14T02:20:09.199Z,19.23
2023-04-14T02:27:00.128Z,19.59
2023-04-14T02:30:37.924Z,19.85
2023-04-14T02:36:29.427Z,19.96
2023-04-14T02:41:36.849Z,20.04
2023-04-14T02:46:44.143Z,20.09
2023-04-14T02:51:51.636Z,20.11
2023-04-14T02:56:59.055Z,20.10
2023-04-14T03:02:08.374Z,20.03
2023-04-14T03:07:17.096Z,19.92
2023-04-14T03:12:33.674Z,19.84
2023-04-14T03:18:16.113Z,19.54
2023-04-14T03:23:58.890Z,19.25
2023-04-14T03:29:06.273Z,19.08
2023-04-14T03:34:13.652Z,18.96
2023-04-14T03:39:56.818Z,18.96
2023-04-14T03:45:05.344Z,18.90
2023-04-14T03:50:17.905Z,18.85
2023-04-14T03:55:37.405Z,18.83
2023-04-14T04:01:00.437Z,18.82
2023-04-14T04:06:07.405Z,18.69
2023-04-14T04:11:33.939Z,19.15
2023-04-14T04:16:55.092Z,19.41
2023-04-14T04:22:14.476Z,19.48
2023-04-14T04:27:51.134Z,19.54
2023-04-14T04:33:10.071Z,19.62
2023-04-14T04:38:27.773Z,19.67
2023-04-14T04:43:41.897Z,19.71
2023-04-14T04:50:03.712Z,19.76
2023-04-14T04:54:17.659Z,19.75
2023-04-14T05:00:04.889Z,19.73
2023-04-14T05:05:12.377Z,19.68
2023-04-14T05:10:45.832Z,19.67
2023-04-14T05:16:19.110Z,19.49
2023-04-14T05:22:17.610Z,19.30
2023-04-14T05:27:12.564Z,19.02
2023-04-14T05:32:07.712Z,18.83
2023-04-14T05:37:18.643Z,18.72
2023-04-14T05:42:30.871Z,18.72
2023-04-14T05:48:18.119Z,18.55
2023-04-14T05:54:05.496Z,18.51
2023-04-14T06:04:38.031Z,18.92
2023-04-14T06:10:25.570Z,19.11
2023-04-14T06:15:39.117Z,19.27
2023-04-14T06:20:46.669Z,19.37
2023-04-14T06:26:07.166Z,19.43
2023-04-14T06:31:18.256Z,19.47
2023-04-14T06:36:30.809Z,19.49
2023-04-14T06:41:43.183Z,19.50
2023-04-14T06:46:55.281Z,19.64
2023-04-14T06:52:01.030Z,19.70
2023-04-14T06:57:08.194Z,19.80
2023-04-14T07:02:15.431Z,19.89
2023-04-14T07:07:22.581Z,20.03
2023-04-14T07:12:29.747Z,20.20
2023-04-14T07:17:37.106Z,20.37
2023-04-14T07:22:44.247Z,20.52
2023-04-14T07:28:02.641Z,20.64
2023-04-14T07:32:58.622Z,20.75
2023-04-14T07:38:06.387Z,20.92
2023-04-14T07:43:13.574Z,21.16
2023-04-14T07:48:20.735Z,21.33
2023-04-14T07:53:27.926Z,21.51
2023-04-14T07:58:35.095Z,21.58
2023-04-14T08:03:45.195Z,21.66
2023-04-14T08:08:49.953Z,21.75
2023-04-14T08:13:57.302Z,21.84
2023-04-14T08:19:05.049Z,21.94
2023-04-14T08:24:11.690Z,22.06
2023-04-14T08:29:18.933Z,22.20
2023-04-14T08:34:28.589Z,22.30
2023-04-14T08:39:33.338Z,22.39
2023-04-14T08:44:40.590Z,22.52
2023-04-14T08:49:47.880Z,22.65
2023-04-14T08:54:55.145Z,22.78
2023-04-14T09:00:02.436Z,22.85
2023-04-14T09:05:09.567Z,22.91
2023-04-14T09:10:16.826Z,22.95
2023-04-14T09:15:24.005Z,23.01
2023-04-14T09:20:40.261Z,23.13
2023-04-14T09:25:39.322Z,23.14
2023-04-14T09:30:46.621Z,23.21
2023-04-14T09:35:53.829Z,23.31
2023-04-14T09:41:01.214Z,23.37
2023-04-14T09:46:08.511Z,23.36
2023-04-14T09:51:15.593Z,23.42
2023-04-14T09:56:22.820Z,23.52
2023-04-14T10:01:30.122Z,23.56
2023-04-14T10:06:37.272Z,23.56
2023-04-14T10:11:44.570Z,23.60
2023-04-14T10:16:51.776Z,23.73
2023-04-14T10:21:58.983Z,23.69
2023-04-14T10:27:06.276Z,23.63
2023-04-14T10:32:13.434Z,23.71
2023-04-14T10:37:20.671Z,23.76
2023-04-14T10:42:30.077Z,23.74
2023-04-14T10:47:37.356Z,23.76
2023-04-14T10:52:44.528Z,23.71
2023-04-14T10:57:51.763Z,23.83
2023-04-14T11:02:59.089Z,23.97
2023-04-14T11:08:06.185Z,24.08
2023-04-14T11:13:13.725Z,24.15
2023-04-14T11:18:20.648Z,24.14
2023-04-14T11:23:27.838Z,24.16
2023-04-14T11:28:35.060Z,24.11
2023-04-14T11:33:42.822Z,24.13
2023-04-14T11:38:49.540Z,24.08
2023-04-14T11:43:56.833Z,24.06
2023-04-14T11:49:04.089Z,24.12
2023-04-14T11:54:11.288Z,24.08
2023-04-14T11:59:18.449Z,24.07
2023-04-14T12:04:25.808Z,24.08
2023-04-14T12:09:32.907Z,24.08
2023-04-14T12:14:40.114Z,24.06
2023-04-14T12:19:47.269Z,24.13
2023-04-14T12:24:54.484Z,24.09
2023-04-14T12:30:01.792Z,24.07
2023-04-14T12:35:08.956Z,24.06
2023-04-14T12:40:16.129Z,24.10
2023-04-14T12:45:23.462Z,24.12
2023-04-14T12:50:30.693Z,24.12
2023-04-14T12:55:37.894Z,24.21
2023-04-14T13:00:45.235Z,24.21
2023-04-14T13:05:52.492Z,24.22
2023-04-14T13:10:59.737Z,24.27
2023-04-14T13:16:14.873Z,24.25
2023-04-14T13:21:15.343Z,24.23
2023-04-14T13:26:22.540Z,24.19
2023-04-14T13:31:29.993Z,24.16
2023-04-14T13:36:37.198Z,24.12
2023-04-14T13:41:44.972Z,24.11
2023-04-14T13:46:52.378Z,24.13
2023-04-14T13:51:59.597Z,24.10
2023-04-14T13:57:06.851Z,24.05
2023-04-14T14:02:14.212Z,24.02
2023-04-14T14:07:21.455Z,24.02
2023-04-14T14:12:28.678Z,23.98
2023-04-14T14:17:35.941Z,23.96
2023-04-14T14:22:43.127Z,23.93
2023-04-14T14:27:50.341Z,23.90
2023-04-14T14:32:57.608Z,23.92
2023-04-14T14:38:04.827Z,23.86
2023-04-14T14:43:12.098Z,23.89
2023-04-14T14:48:19.308Z,23.90
2023-04-14T14:53:28.224Z,23.89
2023-04-14T14:58:35.428Z,23.91
2023-04-14T15:03:42.844Z,23.98
2023-04-14T15:08:50.573Z,23.97
2023-04-14T15:13:57.791Z,23.89
2023-04-14T15:19:05.076Z,23.89
2023-04-14T15:24:12.273Z,23.96
2023-04-14T15:29:19.573Z,24.02
2023-04-14T15:34:26.713Z,24.00
2023-04-14T15:39:33.973Z,24.02
2023-04-14T15:44:41.157Z,24.11
2023-04-14T15:49:50.167Z,24.15
2023-04-14T15:54:55.597Z,24.13
2023-04-14T16:00:02.874Z,24.20
2023-04-14T16:05:10.069Z,24.20
2023-04-14T16:10:17.142Z,24.22
2023-04-14T16:15:24.351Z,24.29
2023-04-14T16:20:31.546Z,24.32
2023-04-14T16:25:38.734Z,24.37
2023-04-14T16:30:45.993Z,24.48
2023-04-14T16:35:53.208Z,24.50
2023-04-14T16:41:00.434Z,24.50
2023-04-14T16:46:07.841Z,24.51
2023-04-14T16:51:15.087Z,24.54
2023-04-14T16:56:22.314Z,24.54
2023-04-14T17:01:29.611Z,24.54
2023-04-14T17:06:36.824Z,24.56
2023-04-14T17:11:44.363Z,24.56
2023-04-14T17:16:51.837Z,24.58
2023-04-14T17:21:59.327Z,24.60
2023-04-14T17:27:06.896Z,24.63
2023-04-14T17:32:14.685Z,24.68
2023-04-14T17:37:22.320Z,24.72
2023-04-14T17:42:29.851Z,24.83
2023-04-14T17:47:37.644Z,24.87
2023-04-14T17:52:45.304Z,24.98
2023-04-14T17:57:52.909Z,24.98
2023-04-14T18:03:00.583Z,24.94
2023-04-14T18:08:08.246Z,25.01
2023-04-14T18:13:15.618Z,25.02
2023-04-14T18:18:23.967Z,24.97
2023-04-14T18:23:30.379Z,24.99
2023-04-14T18:33:44.822Z,24.93
2023-04-14T18:38:52.314Z,24.97
2023-04-14T18:43:59.890Z,25.01
2023-04-14T18:49:07.610Z,25.06
2023-04-14T18:54:15.354Z,25.08
2023-04-14T18:59:23.039Z,25.14
2023-04-14T19:04:30.682Z,25.08
2023-04-14T19:09:38.570Z,25.11
2023-04-14T19:14:46.506Z,25.12
2023-04-14T19:19:54.228Z,25.16
2023-04-14T19:25:01.955Z,25.16
2023-04-14T19:30:11.501Z,25.18
2023-04-14T19:35:19.800Z,25.11
2023-04-14T19:40:27.370Z,25.08
2023-04-14T19:45:35.263Z,24.96
2023-04-14T19:50:43.381Z,24.88
2023-04-14T19:55:51.037Z,24.86
2023-04-14T20:01:01.146Z,24.88
2023-04-14T20:06:08.897Z,24.90
2023-04-14T20:11:16.636Z,24.88
2023-04-14T20:16:24.362Z,24.88
2023-04-14T20:21:31.936Z,24.88
2023-04-14T20:26:39.293Z,24.92
2023-04-14T20:31:46.782Z,24.88
2023-04-14T20:36:54.378Z,24.85
2023-04-14T20:42:01.764Z,24.82
2023-04-14T20:47:08.961Z,24.85
2023-04-14T20:52:16.221Z,24.82
2023-04-14T20:57:23.413Z,24.84
2023-04-14T21:02:30.936Z,24.83
2023-04-14T21:07:39.979Z,24.83
2023-04-14T21:15:24.879Z,24.92
2023-04-14T21:17:54.456Z,24.95
2023-04-14T21:23:01.627Z,24.87
2023-04-14T21:28:08.936Z,24.81
2023-04-14T21:33:16.201Z,24.75
2023-04-14T21:38:23.389Z,24.79
2023-04-14T21:43:30.608Z,24.86
2023-04-14T21:48:37.750Z,24.93
2023-04-14T21:53:44.936Z,24.99
2023-04-14T21:58:52.159Z,25.09
2023-04-14T22:03:59.653Z,25.11
2023-04-14T22:09:07.355Z,25.12
2023-04-14T22:14:14.669Z,25.15
2023-04-14T22:19:21.984Z,25.21
2023-04-14T22:24:29.339Z,25.21
2023-04-14T22:29:40.127Z,25.22
2023-04-14T22:34:47.405Z,25.25
2023-04-14T22:39:54.853Z,25.19
2023-04-14T22:45:02.132Z,25.12
2023-04-14T22:50:09.322Z,25.10
2023-04-14T22:55:16.480Z,25.10
2023-04-14T23:00:23.820Z,25.07
2023-04-14T23:05:31.086Z,24.96
2023-04-14T23:10:38.329Z,25.14
2023-04-14T23:15:45.610Z,25.17
2023-04-14T23:20:52.830Z,25.20
2023-04-14T23:26:00.172Z,25.20
2023-04-14T23:31:07.695Z,25.18
2023-04-14T23:36:34.806Z,25.17
2023-04-14T23:42:15.049Z,25.20
2023-04-14T23:47:25.564Z,25.18
2023-04-14T23:53:19.717Z,25.11
2023-04-14T23:59:00.140Z,25.04
